createdAt,value
2019-03-29T00:02:04.208Z,87.83
2019-03-29T00:04:32.619Z,87.67
2019-03-29T00:07:01.031Z,87.58
2019-03-29T00:09:29.447Z,87.57
2019-03-29T00:11:57.846Z,87.56
2019-03-29T00:14:26.260Z,87.91
2019-03-29T00:16:54.662Z,88.77
2019-03-29T00:19:23.230Z,89.08
2019-03-29T00:21:51.650Z,89.06
2019-03-29T00:24:20.127Z,89.06
2019-03-29T00:26:48.616Z,89.33
2019-03-29T00:29:17.024Z,89.73
2019-03-29T00:31:45.437Z,89.89
2019-03-29T00:34:13.843Z,88.31
2019-03-29T00:36:42.239Z,87.28
2019-03-29T00:39:10.667Z,88.03
2019-03-29T00:41:39.063Z,89.19
2019-03-29T00:44:07.555Z,89.81
2019-03-29T00:46:35.938Z,89.90
2019-03-29T00:49:04.346Z,89.01
2019-03-29T00:51:32.753Z,89.31
2019-03-29T00:54:01.895Z,89.15
2019-03-29T00:56:30.602Z,89.24
2019-03-29T00:58:59.017Z,89.15
2019-03-29T01:01:27.544Z,89.71
2019-03-29T01:03:55.945Z,89.90
2019-03-29T01:06:24.429Z,89.62
2019-03-29T01:08:53.365Z,89.59
2019-03-29T01:11:21.854Z,89.70
2019-03-29T01:13:50.939Z,89.60
2019-03-29T01:16:19.405Z,89.77
2019-03-29T01:18:47.813Z,90.01
2019-03-29T01:21:16.278Z,89.74
2019-03-29T01:23:44.779Z,89.47
2019-03-29T01:26:13.246Z,89.36
2019-03-29T01:28:41.712Z,89.48
2019-03-29T01:31:10.114Z,89.73
2019-03-29T01:33:38.515Z,90.07
2019-03-29T01:36:06.905Z,90.32
2019-03-29T01:38:35.371Z,90.16
2019-03-29T01:41:03.772Z,90.53
2019-03-29T01:43:32.177Z,91.05
2019-03-29T01:46:00.572Z,91.00
2019-03-29T01:48:28.967Z,91.46
2019-03-29T01:50:57.765Z,91.57
2019-03-29T01:53:26.188Z,91.93
2019-03-29T01:55:54.563Z,92.65
2019-03-29T01:58:23.045Z,93.37
2019-03-29T02:00:51.512Z,93.32
2019-03-29T02:03:19.926Z,93.08
2019-03-29T02:05:48.322Z,92.80
2019-03-29T02:08:16.730Z,92.58
2019-03-29T02:10:45.408Z,93.00
2019-03-29T02:13:13.818Z,92.80
2019-03-29T02:15:42.253Z,91.94
2019-03-29T02:18:10.759Z,91.76
2019-03-29T02:20:39.342Z,92.30
2019-03-29T02:23:07.852Z,92.99
2019-03-29T02:25:36.281Z,93.76
2019-03-29T02:28:04.745Z,94.27
2019-03-29T02:30:33.585Z,94.08
2019-03-29T02:33:01.985Z,93.84
2019-03-29T02:35:30.408Z,93.29
2019-03-29T02:38:01.670Z,93.51
2019-03-29T02:40:30.147Z,93.53
2019-03-29T02:42:58.544Z,93.23
2019-03-29T02:45:26.992Z,93.71
2019-03-29T02:47:55.451Z,94.06
2019-03-29T02:50:25.570Z,92.95
2019-03-29T02:52:53.969Z,93.33
2019-03-29T02:55:22.383Z,92.88
2019-03-29T02:57:50.866Z,92.83
2019-03-29T03:00:20.362Z,94.15
2019-03-29T03:02:48.757Z,95.13
2019-03-29T03:05:17.244Z,95.55
2019-03-29T03:07:45.656Z,96.09
2019-03-29T03:10:15.031Z,96.23
2019-03-29T03:12:43.403Z,96.25
2019-03-29T03:15:12.267Z,96.31
2019-03-29T03:17:40.923Z,96.19
2019-03-29T03:20:15.142Z,95.42
2019-03-29T03:22:41.654Z,95.28
2019-03-29T03:25:10.408Z,95.17
2019-03-29T03:27:38.826Z,94.94
2019-03-29T03:30:10.099Z,95.64
2019-03-29T03:32:38.573Z,95.96
2019-03-29T03:35:08.720Z,95.44
2019-03-29T03:37:37.191Z,95.59
2019-03-29T03:40:08.552Z,95.79
2019-03-29T03:42:37.039Z,96.07
2019-03-29T03:45:08.167Z,96.20
2019-03-29T03:47:38.097Z,96.21
2019-03-29T03:50:07.910Z,96.49
2019-03-29T03:52:36.464Z,97.17
2019-03-29T03:55:06.526Z,97.02
2019-03-29T03:57:35.580Z,96.79
2019-03-29T04:00:08.402Z,96.43
2019-03-29T04:02:36.973Z,97.05
2019-03-29T04:05:06.340Z,97.15
2019-03-29T04:07:34.902Z,97.24
2019-03-29T04:10:03.935Z,97.31
2019-03-29T04:12:32.377Z,97.30
2019-03-29T04:15:00.834Z,97.10
2019-03-29T04:17:29.268Z,96.79
2019-03-29T04:19:57.723Z,95.59
2019-03-29T04:22:26.161Z,95.68
2019-03-29T04:24:54.567Z,95.60
2019-03-29T04:27:23.036Z,96.00
2019-03-29T04:29:51.553Z,95.74
2019-03-29T04:32:19.960Z,95.37
2019-03-29T04:34:48.373Z,94.39
2019-03-29T04:37:16.942Z,94.50
2019-03-29T04:39:45.422Z,95.50
2019-03-29T04:42:13.831Z,96.26
2019-03-29T04:44:42.231Z,96.76
2019-03-29T04:47:10.650Z,96.99
2019-03-29T04:49:39.040Z,96.02
2019-03-29T04:52:07.436Z,95.58
2019-03-29T04:54:35.841Z,95.11
2019-03-29T04:57:04.242Z,95.54
2019-03-29T04:59:32.660Z,96.22
2019-03-29T05:02:01.067Z,98.20
2019-03-29T05:04:29.483Z,99.83
2019-03-29T05:06:57.911Z,100.00
2019-03-29T05:09:26.315Z,100.00
2019-03-29T05:11:54.789Z,100.00
2019-03-29T05:14:23.256Z,100.00
2019-03-29T05:16:51.639Z,100.00
2019-03-29T05:19:20.050Z,100.00
2019-03-29T05:21:48.451Z,100.00
2019-03-29T05:24:16.882Z,98.87
2019-03-29T05:26:45.292Z,97.27
2019-03-29T05:29:13.690Z,94.90
2019-03-29T05:31:42.111Z,95.53
2019-03-29T05:34:10.509Z,96.07
2019-03-29T05:36:39.009Z,96.18
2019-03-29T05:39:07.465Z,96.26
2019-03-29T05:41:35.861Z,96.63
2019-03-29T05:44:04.248Z,97.02
2019-03-29T05:46:32.676Z,96.94
2019-03-29T05:49:01.120Z,97.54
2019-03-29T05:51:29.512Z,97.46
2019-03-29T05:53:57.902Z,97.74
2019-03-29T05:56:26.355Z,96.70
2019-03-29T05:58:54.767Z,97.48
2019-03-29T06:03:34.981Z,95.59
2019-03-29T06:06:03.449Z,94.87
2019-03-29T06:08:31.852Z,95.38
2019-03-29T06:11:00.259Z,95.71
2019-03-29T06:13:28.778Z,95.00
2019-03-29T06:15:57.178Z,94.77
2019-03-29T06:18:25.596Z,94.93
2019-03-29T06:20:53.998Z,95.75
2019-03-29T06:23:22.411Z,96.25
2019-03-29T06:25:50.884Z,95.73
2019-03-29T06:28:19.295Z,95.27
2019-03-29T06:30:47.772Z,95.05
2019-03-29T06:33:16.202Z,94.96
2019-03-29T06:35:46.903Z,93.93
2019-03-29T06:38:15.869Z,94.20
2019-03-29T06:40:44.296Z,92.61
2019-03-29T06:43:12.779Z,91.92
2019-03-29T06:45:47.679Z,90.39
2019-03-29T06:48:11.415Z,87.54
2019-03-29T06:50:39.889Z,79.71
2019-03-29T06:53:08.426Z,74.81
2019-03-29T06:55:36.826Z,71.31
2019-03-29T06:58:05.264Z,66.20
2019-03-29T07:00:33.757Z,64.83
2019-03-29T07:03:02.240Z,61.33
2019-03-29T07:05:30.748Z,59.43
2019-03-29T07:07:59.246Z,57.40
2019-03-29T07:10:27.685Z,54.47
2019-03-29T07:12:56.660Z,55.08
2019-03-29T07:15:25.183Z,51.16
2019-03-29T07:17:53.640Z,50.41
2019-03-29T07:20:22.097Z,48.22
2019-03-29T07:22:50.517Z,46.99
2019-03-29T07:25:19.078Z,45.59
2019-03-29T07:27:52.210Z,45.46
2019-03-29T07:30:17.817Z,44.20
2019-03-29T07:32:46.228Z,43.98
2019-03-29T07:35:14.726Z,42.81
2019-03-29T07:37:44.640Z,40.77
2019-03-29T07:40:13.484Z,42.37
2019-03-29T07:42:41.958Z,40.53
2019-03-29T07:45:11.365Z,40.68
2019-03-29T07:47:39.768Z,39.94
2019-03-29T07:50:08.639Z,39.78
2019-03-29T07:52:37.044Z,39.64
2019-03-29T07:55:07.404Z,38.25
2019-03-29T07:57:38.606Z,38.78
2019-03-29T08:00:08.198Z,38.97
2019-03-29T08:02:36.604Z,38.06
2019-03-29T08:05:06.356Z,38.16
2019-03-29T08:07:34.768Z,36.91
2019-03-29T08:10:04.551Z,36.10
2019-03-29T08:12:33.029Z,34.70
2019-03-29T08:15:01.516Z,33.98
2019-03-29T08:17:30.056Z,33.79
2019-03-29T08:20:35.797Z,33.85
2019-03-29T08:22:28.624Z,33.28
2019-03-29T08:24:59.274Z,32.81
2019-03-29T08:27:27.399Z,32.38
2019-03-29T08:29:55.838Z,32.96
2019-03-29T08:32:24.297Z,32.03
2019-03-29T08:34:52.711Z,31.90
2019-03-29T08:37:21.140Z,31.03
2019-03-29T08:39:49.645Z,31.91
2019-03-29T08:42:18.706Z,31.69
2019-03-29T08:44:47.334Z,32.48
2019-03-29T08:47:15.814Z,31.50
2019-03-29T08:49:44.235Z,31.09
2019-03-29T08:52:12.718Z,30.42
2019-03-29T08:54:41.215Z,29.94
2019-03-29T08:57:10.854Z,28.91
2019-03-29T08:59:39.415Z,28.09
2019-03-29T09:02:07.941Z,28.55
2019-03-29T09:04:36.511Z,28.73
2019-03-29T09:07:04.997Z,28.03
2019-03-29T09:09:33.430Z,27.66
2019-03-29T09:12:13.848Z,28.57
2019-03-29T09:14:32.174Z,29.50
2019-03-29T09:17:00.656Z,30.00
2019-03-29T09:19:29.094Z,30.49
2019-03-29T09:21:57.498Z,29.51
2019-03-29T09:24:25.982Z,28.21
2019-03-29T09:26:54.403Z,27.98
2019-03-29T09:29:22.823Z,27.44
2019-03-29T09:31:51.328Z,27.66
2019-03-29T09:34:19.750Z,27.18
2019-03-29T09:36:48.180Z,27.49
2019-03-29T09:39:16.591Z,26.13
2019-03-29T09:41:45.017Z,26.59
2019-03-29T09:44:13.502Z,27.20
2019-03-29T09:46:41.900Z,26.62
2019-03-29T09:49:10.326Z,26.76
2019-03-29T09:51:38.810Z,26.20
2019-03-29T09:54:07.215Z,25.27
2019-03-29T09:56:39.069Z,24.92
2019-03-29T09:59:05.837Z,25.20
2019-03-29T10:01:34.476Z,24.09
2019-03-29T10:04:02.991Z,23.59
2019-03-29T10:06:31.389Z,24.03
2019-03-29T10:08:59.802Z,24.85
2019-03-29T10:11:28.199Z,26.57
2019-03-29T10:13:56.669Z,26.46
2019-03-29T10:16:26.045Z,25.30
2019-03-29T10:18:54.596Z,25.32
2019-03-29T10:21:23.009Z,25.27
2019-03-29T10:23:51.401Z,25.03
2019-03-29T10:26:19.822Z,23.93
2019-03-29T10:28:48.268Z,24.14
2019-03-29T10:31:31.095Z,23.33
2019-03-29T10:33:49.034Z,23.11
2019-03-29T10:36:16.928Z,23.41
2019-03-29T10:38:45.383Z,22.84
2019-03-29T10:41:13.870Z,23.02
2019-03-29T10:43:42.290Z,23.01
2019-03-29T10:46:10.702Z,22.54
2019-03-29T10:48:39.119Z,21.22
2019-03-29T10:51:08.582Z,21.62
2019-03-29T10:53:37.065Z,21.60
2019-03-29T10:56:05.541Z,21.61
2019-03-29T10:58:34.077Z,21.15
2019-03-29T11:01:02.567Z,22.27
2019-03-29T11:03:31.050Z,24.93
2019-03-29T11:05:59.633Z,25.04
2019-03-29T11:08:28.121Z,24.61
2019-03-29T11:10:56.627Z,23.41
2019-03-29T11:13:25.101Z,23.16
2019-03-29T11:15:53.749Z,22.64
2019-03-29T11:18:22.339Z,21.67
2019-03-29T11:20:50.828Z,21.70
2019-03-29T11:23:19.338Z,22.20
2019-03-29T11:25:48.803Z,21.88
2019-03-29T11:28:17.611Z,23.72
2019-03-29T11:30:46.022Z,25.23
2019-03-29T11:33:14.481Z,26.29
2019-03-29T11:35:42.968Z,25.20
2019-03-29T11:38:11.455Z,22.58
2019-03-29T11:40:39.861Z,23.28
2019-03-29T11:43:08.389Z,25.65
2019-03-29T11:45:36.783Z,26.16
2019-03-29T11:48:09.032Z,24.26
2019-03-29T11:50:35.745Z,24.44
2019-03-29T11:53:04.245Z,25.50
2019-03-29T11:55:32.702Z,25.92
2019-03-29T11:58:01.145Z,24.04
2019-03-29T12:00:34.344Z,23.09
2019-03-29T12:03:03.318Z,21.65
2019-03-29T12:05:31.811Z,21.00
2019-03-29T12:08:00.232Z,21.87
2019-03-29T12:10:28.650Z,21.49
2019-03-29T12:12:57.203Z,21.32
2019-03-29T12:15:25.961Z,20.37
2019-03-29T12:17:54.355Z,20.14
2019-03-29T12:20:22.832Z,22.03
2019-03-29T12:22:51.355Z,21.29
2019-03-29T12:25:19.783Z,20.40
2019-03-29T12:27:48.187Z,21.64
2019-03-29T12:30:30.717Z,20.77
2019-03-29T12:32:48.167Z,21.15
2019-03-29T12:35:16.660Z,20.50
2019-03-29T12:37:45.055Z,20.76
2019-03-29T12:40:13.637Z,21.55
2019-03-29T12:42:42.078Z,22.99
2019-03-29T12:45:10.950Z,23.28
2019-03-29T12:47:39.453Z,22.94
2019-03-29T12:50:09.212Z,22.47
2019-03-29T12:52:37.628Z,23.12
2019-03-29T12:55:06.372Z,22.27
2019-03-29T12:57:38.455Z,22.24
2019-03-29T13:00:08.102Z,21.61
2019-03-29T13:02:36.582Z,24.00
2019-03-29T13:05:07.372Z,24.13
2019-03-29T13:07:35.826Z,22.96
2019-03-29T13:10:07.535Z,23.25
2019-03-29T13:12:36.006Z,22.39
2019-03-29T13:15:06.912Z,22.21
2019-03-29T13:17:35.388Z,21.49
2019-03-29T13:20:05.262Z,21.12
2019-03-29T13:22:34.862Z,22.88
2019-03-29T13:25:07.190Z,22.83
2019-03-29T13:27:34.182Z,24.75
2019-03-29T13:30:02.653Z,23.80
2019-03-29T13:32:33.436Z,23.80
2019-03-29T13:35:01.272Z,22.97
2019-03-29T13:37:29.692Z,23.23
2019-03-29T13:39:58.185Z,22.97
2019-03-29T13:42:26.609Z,23.52
2019-03-29T13:44:55.051Z,24.00
2019-03-29T13:47:23.469Z,24.71
2019-03-29T13:49:51.886Z,24.56
2019-03-29T13:52:20.293Z,24.94
2019-03-29T13:54:48.717Z,24.83
2019-03-29T13:57:17.212Z,26.00
2019-03-29T13:59:45.623Z,25.86
2019-03-29T14:02:14.547Z,25.18
2019-03-29T14:04:42.979Z,25.15
2019-03-29T14:07:11.452Z,24.25
2019-03-29T14:09:39.885Z,24.35
2019-03-29T14:12:08.345Z,24.65
2019-03-29T14:14:38.483Z,25.37
2019-03-29T14:17:07.001Z,25.81
2019-03-29T14:19:35.412Z,26.88
2019-03-29T14:22:03.854Z,26.64
2019-03-29T14:24:32.281Z,26.45
2019-03-29T14:27:00.712Z,26.68
2019-03-29T14:29:29.411Z,26.77
2019-03-29T14:31:57.813Z,26.41
2019-03-29T14:34:26.219Z,27.52
2019-03-29T14:36:54.654Z,27.19
2019-03-29T14:39:29.555Z,27.29
2019-03-29T14:41:57.998Z,27.35
2019-03-29T14:44:26.417Z,27.39
2019-03-29T14:46:54.859Z,27.75
2019-03-29T14:49:23.355Z,27.79
2019-03-29T14:51:51.856Z,27.67
2019-03-29T14:54:20.420Z,27.70
2019-03-29T14:56:48.804Z,27.47
2019-03-29T14:59:17.284Z,28.05
2019-03-29T15:01:45.676Z,27.90
2019-03-29T15:04:14.151Z,27.88
2019-03-29T15:06:42.565Z,27.62
2019-03-29T15:09:10.975Z,27.58
2019-03-29T15:11:39.380Z,27.85
2019-03-29T15:14:07.948Z,27.75
2019-03-29T15:16:36.366Z,27.80
2019-03-29T15:19:04.937Z,28.43
2019-03-29T15:21:33.361Z,28.71
2019-03-29T15:24:01.789Z,28.84
2019-03-29T15:26:30.194Z,28.88
2019-03-29T15:28:58.664Z,29.19
2019-03-29T15:31:27.125Z,28.95
2019-03-29T15:33:55.895Z,29.44
2019-03-29T15:36:24.478Z,29.86
2019-03-29T15:38:52.878Z,29.35
2019-03-29T15:41:21.278Z,29.74
2019-03-29T15:43:49.688Z,30.08
2019-03-29T15:46:18.117Z,30.33
2019-03-29T15:48:46.538Z,30.27
2019-03-29T15:51:15.021Z,30.66
2019-03-29T15:53:43.428Z,30.79
2019-03-29T15:56:11.931Z,30.67
2019-03-29T15:58:40.321Z,30.70
2019-03-29T16:01:08.805Z,30.98
2019-03-29T16:03:37.225Z,31.70
2019-03-29T16:06:05.788Z,31.53
2019-03-29T16:08:34.196Z,31.67
2019-03-29T16:11:02.665Z,32.40
2019-03-29T16:13:31.144Z,32.73
2019-03-29T16:15:59.558Z,32.72
2019-03-29T16:18:27.974Z,32.57
2019-03-29T16:20:56.384Z,33.39
2019-03-29T16:23:24.787Z,33.94
2019-03-29T16:25:53.292Z,34.01
2019-03-29T16:28:21.737Z,33.75
2019-03-29T16:30:50.223Z,33.77
2019-03-29T16:33:18.706Z,34.14
2019-03-29T16:35:47.144Z,34.85
2019-03-29T16:38:15.657Z,34.74
2019-03-29T16:40:44.135Z,35.12
2019-03-29T16:43:12.656Z,34.75
2019-03-29T16:45:47.946Z,35.63
2019-03-29T16:48:11.402Z,35.76
2019-03-29T16:50:39.821Z,35.39
2019-03-29T16:53:08.307Z,36.12
2019-03-29T16:55:36.727Z,36.43
2019-03-29T16:58:05.306Z,36.68
2019-03-29T17:00:33.760Z,36.92
2019-03-29T17:03:02.203Z,37.17
2019-03-29T17:05:30.624Z,37.59
2019-03-29T17:07:59.099Z,37.08
2019-03-29T17:10:27.611Z,37.52
2019-03-29T17:12:56.485Z,37.88
2019-03-29T17:15:24.968Z,38.47
2019-03-29T17:17:53.376Z,38.84
2019-03-29T17:20:21.764Z,38.47
2019-03-29T17:22:50.624Z,38.84
2019-03-29T17:25:19.037Z,39.36
2019-03-29T17:27:47.425Z,39.76
2019-03-29T17:30:19.155Z,39.97
2019-03-29T17:32:47.584Z,40.02
2019-03-29T17:35:16.006Z,40.73
2019-03-29T17:37:44.507Z,41.22
2019-03-29T17:40:13.273Z,41.62
2019-03-29T17:42:41.682Z,42.07
2019-03-29T17:45:10.370Z,43.05
2019-03-29T17:47:38.783Z,42.79
2019-03-29T17:50:07.312Z,43.19
2019-03-29T17:52:35.970Z,43.18
2019-03-29T17:55:06.189Z,43.82
2019-03-29T17:57:34.600Z,43.98
2019-03-29T18:00:04.997Z,44.03
2019-03-29T18:02:33.496Z,44.46
2019-03-29T18:05:01.998Z,45.42
2019-03-29T18:07:30.450Z,45.92
2019-03-29T18:09:58.901Z,46.46
2019-03-29T18:12:27.321Z,47.92
2019-03-29T18:14:55.760Z,48.88
2019-03-29T18:17:24.172Z,49.71
2019-03-29T18:19:52.604Z,50.63
2019-03-29T18:22:21.024Z,51.26
2019-03-29T18:24:49.583Z,52.06
2019-03-29T18:27:17.994Z,52.65
2019-03-29T18:29:46.409Z,53.10
2019-03-29T18:32:14.857Z,53.26
2019-03-29T18:34:43.353Z,53.77
2019-03-29T18:37:13.261Z,53.87
2019-03-29T18:39:42.011Z,54.60
2019-03-29T18:42:10.430Z,54.81
2019-03-29T18:44:38.929Z,55.39
2019-03-29T18:47:07.454Z,56.07
2019-03-29T18:49:35.858Z,56.59
2019-03-29T18:52:04.379Z,56.62
2019-03-29T18:54:32.791Z,56.72
2019-03-29T18:57:01.251Z,57.08
2019-03-29T18:59:29.742Z,57.00
2019-03-29T19:01:58.171Z,57.40
2019-03-29T19:04:26.628Z,57.64
2019-03-29T19:06:55.096Z,57.75
2019-03-29T19:09:23.522Z,57.90
2019-03-29T19:11:51.931Z,58.58
2019-03-29T19:14:20.359Z,59.19
2019-03-29T19:16:58.924Z,59.80
2019-03-29T19:19:18.897Z,60.30
2019-03-29T19:21:47.361Z,60.68
2019-03-29T19:24:15.808Z,61.08
2019-03-29T19:26:44.417Z,61.32
2019-03-29T19:29:12.892Z,61.47
2019-03-29T19:31:41.479Z,61.95
2019-03-29T19:34:10.007Z,62.00
2019-03-29T19:36:38.400Z,62.08
2019-03-29T19:39:07.103Z,62.67
2019-03-29T19:41:35.573Z,62.80
2019-03-29T19:44:04.083Z,62.90
2019-03-29T19:46:32.552Z,63.39
2019-03-29T19:49:01.004Z,63.39
2019-03-29T19:51:29.447Z,63.58
2019-03-29T19:54:07.086Z,63.65
2019-03-29T19:56:28.200Z,63.79
2019-03-29T19:58:56.723Z,63.79
2019-03-29T20:01:25.191Z,64.74
2019-03-29T20:03:53.662Z,64.73
2019-03-29T20:06:22.067Z,65.45
2019-03-29T20:08:50.523Z,65.58
2019-03-29T20:11:18.965Z,66.89
2019-03-29T20:13:47.402Z,67.55
2019-03-29T20:16:15.955Z,68.11
2019-03-29T20:18:44.419Z,68.55
2019-03-29T20:21:12.894Z,68.93
2019-03-29T20:23:41.296Z,68.83
2019-03-29T20:26:09.810Z,68.92
2019-03-29T20:28:38.237Z,68.80
2019-03-29T20:31:06.678Z,68.06
2019-03-29T20:33:35.108Z,67.93
2019-03-29T20:36:03.626Z,68.01
2019-03-29T20:38:32.113Z,68.46
2019-03-29T20:41:00.517Z,68.72
2019-03-29T20:43:28.924Z,69.54
2019-03-29T20:45:57.348Z,69.16
2019-03-29T20:48:25.790Z,69.62
2019-03-29T20:50:54.227Z,69.94
2019-03-29T20:53:22.706Z,70.38
2019-03-29T20:55:51.208Z,70.49
2019-03-29T20:58:19.693Z,70.14
2019-03-29T21:03:34.186Z,70.02
2019-03-29T21:06:02.610Z,69.51
2019-03-29T21:08:31.038Z,69.23
2019-03-29T21:10:59.684Z,70.13
2019-03-29T21:13:28.184Z,69.78
2019-03-29T21:15:56.620Z,70.06
2019-03-29T21:18:25.047Z,69.89
2019-03-29T21:20:53.464Z,69.87
2019-03-29T21:23:21.886Z,70.03
2019-03-29T21:25:50.622Z,69.64
2019-03-29T21:28:19.144Z,70.16
2019-03-29T21:30:47.713Z,70.77
2019-03-29T21:33:16.308Z,71.06
2019-03-29T21:35:44.782Z,71.38
2019-03-29T21:38:13.205Z,71.90
2019-03-29T21:40:41.644Z,72.29
2019-03-29T21:43:10.081Z,72.45
2019-03-29T21:45:38.595Z,72.53
2019-03-29T21:48:27.317Z,72.69
2019-03-29T21:50:37.297Z,73.13
2019-03-29T21:53:05.800Z,73.74
2019-03-29T21:55:34.267Z,74.51
2019-03-29T21:58:02.778Z,74.91
2019-03-29T22:00:31.227Z,75.24
2019-03-29T22:02:59.638Z,75.41
2019-03-29T22:05:28.066Z,75.06
2019-03-29T22:07:56.469Z,74.51
2019-03-29T22:10:24.934Z,74.52
2019-03-29T22:12:53.339Z,74.93
2019-03-29T22:15:21.780Z,75.01
2019-03-29T22:17:50.181Z,75.09
2019-03-29T22:20:18.622Z,75.11
2019-03-29T22:22:47.212Z,75.63
2019-03-29T22:25:15.666Z,75.44
2019-03-29T22:27:44.085Z,75.88
2019-03-29T22:30:14.022Z,76.14
2019-03-29T22:32:42.409Z,76.12
2019-03-29T22:35:11.004Z,75.80
2019-03-29T22:37:39.480Z,76.11
2019-03-29T22:40:08.859Z,75.79
2019-03-29T22:42:37.491Z,75.98
2019-03-29T22:45:09.920Z,75.69
2019-03-29T22:47:38.400Z,76.22
2019-03-29T22:50:07.664Z,76.32
2019-03-29T22:52:36.068Z,76.87
2019-03-29T22:55:06.217Z,77.24
2019-03-29T22:57:34.613Z,77.36
2019-03-29T23:00:04.610Z,77.48
2019-03-29T23:02:33.018Z,77.81
2019-03-29T23:05:01.421Z,77.74
2019-03-29T23:07:29.872Z,78.29
2019-03-29T23:09:58.342Z,78.42
2019-03-29T23:12:26.826Z,78.56
2019-03-29T23:14:55.247Z,78.90
2019-03-29T23:17:23.678Z,78.70
2019-03-29T23:19:52.106Z,78.32
2019-03-29T23:22:20.605Z,78.80
2019-03-29T23:24:49.012Z,78.65
2019-03-29T23:27:17.433Z,78.69
2019-03-29T23:29:45.928Z,78.55
2019-03-29T23:32:14.378Z,78.21
2019-03-29T23:34:42.783Z,78.35
2019-03-29T23:37:11.287Z,78.52
2019-03-29T23:39:39.728Z,78.33
2019-03-29T23:42:08.160Z,78.45
2019-03-29T23:44:36.581Z,78.54
2019-03-29T23:47:04.983Z,78.22
2019-03-29T23:49:33.403Z,78.72
2019-03-29T23:52:01.848Z,79.03
2019-03-29T23:54:30.261Z,79.80
2019-03-29T23:56:58.988Z,79.93
2019-03-29T23:59:27.629Z,79.96
